createdAt,value
2023-05-24T00:00:01.962Z,15.48
2023-05-24T00:02:33.449Z,9.60
2023-05-24T00:05:04.563Z,19.25
2023-05-24T00:07:34.131Z,10.32
2023-05-24T00:10:03.523Z,11.20
2023-05-24T00:12:33.619Z,9.73
2023-05-24T00:15:04.269Z,13.93
2023-05-24T00:17:34.645Z,13.02
2023-05-24T00:20:05.080Z,13.90
2023-05-24T00:22:37.663Z,9.93
2023-05-24T00:25:09.037Z,15.68
2023-05-24T00:27:39.173Z,12.68
2023-05-24T00:30:09.058Z,8.95
2023-05-24T00:32:37.282Z,11.50
2023-05-24T00:35:08.153Z,7.72
2023-05-24T00:37:40.283Z,15.00
2023-05-24T00:40:11.045Z,11.32
2023-05-24T00:42:41.472Z,13.15
2023-05-24T00:45:11.541Z,10.68
2023-05-24T00:47:42.195Z,7.57
2023-05-24T00:50:17.060Z,13.10
2023-05-24T00:52:49.609Z,15.10
2023-05-24T00:55:19.865Z,16.20
2023-05-24T00:57:49.403Z,19.58
2023-05-24T01:00:20.078Z,14.88
2023-05-24T01:02:51.037Z,11.60
2023-05-24T01:05:21.878Z,15.93
2023-05-24T01:08:09.868Z,19.67
2023-05-24T01:10:51.599Z,17.75
2023-05-24T01:13:31.994Z,14.75
2023-05-24T01:16:07.247Z,10.00
2023-05-24T01:18:40.933Z,16.20
2023-05-24T01:21:28.218Z,14.13
2023-05-24T01:24:16.834Z,13.68
2023-05-24T01:27:06.545Z,11.70
2023-05-24T01:29:38.668Z,14.07
2023-05-24T01:32:08.689Z,14.10
2023-05-24T01:34:38.277Z,15.68
2023-05-24T01:37:06.938Z,14.60
2023-05-24T01:39:36.385Z,18.88
2023-05-24T01:42:20.678Z,11.07
2023-05-24T01:45:00.941Z,11.70
2023-05-24T01:47:39.970Z,11.32
2023-05-24T01:50:19.572Z,14.60
2023-05-24T01:52:53.280Z,18.13
2023-05-24T01:55:23.689Z,8.13
2023-05-24T01:58:01.043Z,9.50
2023-05-24T02:00:32.393Z,15.05
2023-05-24T02:03:02.198Z,13.90
2023-05-24T02:05:30.728Z,8.40
2023-05-24T02:07:59.398Z,7.72
2023-05-24T02:10:27.732Z,10.90
2023-05-24T02:12:59.561Z,10.88
2023-05-24T02:15:30.451Z,14.32
2023-05-24T02:18:02.415Z,12.48
2023-05-24T02:20:33.490Z,14.80
2023-05-24T02:23:01.779Z,22.27
2023-05-24T02:25:33.953Z,16.42
2023-05-24T02:28:03.634Z,16.67
2023-05-24T02:30:33.025Z,18.08
2023-05-24T02:33:02.140Z,15.05
2023-05-24T02:35:34.418Z,10.30
2023-05-24T02:38:06.865Z,22.92
2023-05-24T02:40:36.765Z,16.42
2023-05-24T02:43:07.539Z,17.70
2023-05-24T02:45:37.891Z,12.07
2023-05-24T02:48:06.838Z,20.33
2023-05-24T02:50:38.029Z,10.40
2023-05-24T02:53:06.938Z,15.27
2023-05-24T02:55:38.561Z,17.20
2023-05-24T02:58:10.849Z,14.75
2023-05-24T03:00:41.124Z,16.88
2023-05-24T03:03:10.918Z,15.75
2023-05-24T03:05:41.068Z,14.52
2023-05-24T03:08:10.762Z,22.40
2023-05-24T03:10:40.963Z,15.88
2023-05-24T03:13:12.274Z,10.95
2023-05-24T03:15:43.295Z,18.92
2023-05-24T03:18:12.832Z,12.02
2023-05-24T03:20:43.709Z,12.80
2023-05-24T03:23:12.816Z,23.05
2023-05-24T03:25:43.159Z,14.98
2023-05-24T03:28:15.862Z,9.23
2023-05-24T03:30:46.218Z,15.63
2023-05-24T03:33:15.106Z,10.75
2023-05-24T03:35:45.600Z,10.05
2023-05-24T03:40:46.429Z,15.60
2023-05-24T03:43:21.357Z,18.80
2023-05-24T03:45:59.279Z,19.33
2023-05-24T03:48:28.865Z,19.92
2023-05-24T03:50:58.871Z,20.15
2023-05-24T03:53:28.351Z,17.98
2023-05-24T03:55:59.093Z,18.50
2023-05-24T03:58:30.135Z,16.45
2023-05-24T04:00:58.415Z,16.08
2023-05-24T04:03:28.298Z,14.13
2023-05-24T04:05:57.777Z,19.42
2023-05-24T04:08:26.565Z,18.50
2023-05-24T04:10:56.634Z,13.15
2023-05-24T04:13:26.326Z,20.58
2023-05-24T04:15:56.076Z,13.43
2023-05-24T04:18:25.715Z,19.77
2023-05-24T04:20:56.524Z,20.15
2023-05-24T04:23:26.266Z,15.15
2023-05-24T04:25:56.692Z,21.00
2023-05-24T04:28:27.557Z,21.77
2023-05-24T04:30:57.772Z,16.58
2023-05-24T04:33:28.156Z,22.77
2023-05-24T04:35:59.582Z,18.13
2023-05-24T04:38:30.922Z,22.45
2023-05-24T04:40:59.777Z,17.25
2023-05-24T04:43:28.346Z,19.02
2023-05-24T04:46:00.586Z,30.40
2023-05-24T04:48:30.094Z,14.23
2023-05-24T04:51:00.835Z,20.77
2023-05-24T04:53:29.129Z,20.05
2023-05-24T04:55:57.514Z,20.98
2023-05-24T04:58:27.498Z,14.38
2023-05-24T05:00:59.855Z,17.02
2023-05-24T05:03:29.538Z,25.75
2023-05-24T05:05:57.961Z,13.95
2023-05-24T05:08:27.684Z,18.83
2023-05-24T05:10:57.693Z,12.18
2023-05-24T05:15:55.376Z,15.95
2023-05-24T05:18:26.192Z,16.35
2023-05-24T05:20:56.142Z,15.32
2023-05-24T05:23:26.176Z,20.23
2023-05-24T05:25:56.023Z,16.63
2023-05-24T05:28:26.857Z,12.90
2023-05-24T05:30:56.904Z,14.70
2023-05-24T05:33:26.822Z,16.23
2023-05-24T05:35:56.643Z,14.57
2023-05-24T05:38:26.223Z,13.30
2023-05-24T05:40:55.590Z,16.30
2023-05-24T05:43:25.119Z,16.50
2023-05-24T05:45:54.831Z,17.70
2023-05-24T05:48:27.022Z,14.07
2023-05-24T05:50:55.506Z,13.32
2023-05-24T05:53:27.565Z,17.50
2023-05-24T05:55:58.664Z,19.52
2023-05-24T05:58:27.060Z,17.38
2023-05-24T06:00:55.393Z,12.13
2023-05-24T06:03:24.223Z,21.48
2023-05-24T06:05:56.842Z,10.23
2023-05-24T06:08:26.289Z,21.60
2023-05-24T06:10:55.716Z,15.07
2023-05-24T06:13:26.627Z,16.05
2023-05-24T06:15:56.519Z,14.30
2023-05-24T06:18:27.631Z,18.40
2023-05-24T06:20:59.963Z,20.02
2023-05-24T06:23:30.035Z,16.63
2023-05-24T06:25:58.226Z,13.40
2023-05-24T06:28:27.983Z,15.45
2023-05-24T06:30:56.432Z,11.25
2023-05-24T06:33:27.164Z,16.60
2023-05-24T06:35:55.355Z,10.10
2023-05-24T06:38:25.093Z,12.18
2023-05-24T06:40:53.783Z,10.90
2023-05-24T06:43:23.191Z,14.15
2023-05-24T06:45:54.189Z,11.52
2023-05-24T06:48:24.236Z,13.15
2023-05-24T06:50:53.135Z,12.25
2023-05-24T06:53:21.826Z,14.27
2023-05-24T06:55:51.656Z,14.52
2023-05-24T06:58:22.654Z,11.15
2023-05-24T07:00:51.172Z,14.77
2023-05-24T07:05:50.156Z,12.63
2023-05-24T07:08:19.574Z,22.13
2023-05-24T07:10:50.313Z,11.85
2023-05-24T07:13:19.886Z,14.35
2023-05-24T07:15:49.933Z,13.32
2023-05-24T07:18:19.297Z,10.45
2023-05-24T07:20:48.037Z,14.68
2023-05-24T07:23:17.544Z,12.93
2023-05-24T07:25:48.239Z,15.13
2023-05-24T07:28:20.140Z,13.38
2023-05-24T07:30:51.493Z,17.13
2023-05-24T07:33:20.243Z,14.52
2023-05-24T07:35:51.665Z,11.88
2023-05-24T07:38:19.918Z,14.27
2023-05-24T07:40:49.569Z,15.95
2023-05-24T07:43:17.973Z,14.98
2023-05-24T07:45:46.310Z,11.85
2023-05-24T07:48:18.451Z,15.23
2023-05-24T07:50:52.698Z,17.55
2023-05-24T07:53:24.247Z,16.88
2023-05-24T07:55:53.926Z,15.75
2023-05-24T07:58:23.797Z,10.63
2023-05-24T08:00:53.692Z,13.60
2023-05-24T08:03:27.137Z,17.90
2023-05-24T08:05:55.449Z,21.17
2023-05-24T08:08:26.253Z,15.35
2023-05-24T08:10:55.823Z,10.98
2023-05-24T08:15:55.551Z,14.85
2023-05-24T08:18:26.709Z,16.40
2023-05-24T08:20:56.107Z,13.38
2023-05-24T08:23:27.374Z,17.00
2023-05-24T08:25:58.468Z,13.73
2023-05-24T08:28:28.464Z,12.63
2023-05-24T08:30:58.665Z,14.13
2023-05-24T08:33:29.207Z,12.43
2023-05-24T08:35:59.234Z,9.23
2023-05-24T08:38:29.020Z,10.73
2023-05-24T08:40:58.666Z,14.95
2023-05-24T08:43:32.094Z,12.15
2023-05-24T08:46:04.776Z,11.70
2023-05-24T08:48:35.981Z,12.77
2023-05-24T08:51:06.746Z,15.70
2023-05-24T08:53:38.906Z,17.35
2023-05-24T08:56:08.954Z,13.35
2023-05-24T08:58:39.659Z,15.30
2023-05-24T09:01:09.950Z,10.63
2023-05-24T09:03:44.671Z,12.80
2023-05-24T09:06:17.483Z,13.18
2023-05-24T09:08:48.804Z,11.07
2023-05-24T09:11:17.568Z,13.27
2023-05-24T09:13:46.565Z,15.25
2023-05-24T09:16:17.838Z,14.27
2023-05-24T09:18:50.270Z,15.45
2023-05-24T09:21:20.793Z,14.45
2023-05-24T09:23:52.529Z,12.23
2023-05-24T09:26:23.832Z,15.20
2023-05-24T09:28:58.681Z,15.93
2023-05-24T09:31:41.464Z,15.43
2023-05-24T09:34:16.957Z,17.92
2023-05-24T09:36:49.495Z,16.95
2023-05-24T09:39:21.690Z,14.43
2023-05-24T09:41:58.806Z,14.20
2023-05-24T09:44:28.001Z,12.02
2023-05-24T09:47:06.369Z,14.98
2023-05-24T09:49:40.058Z,12.98
2023-05-24T09:52:10.791Z,12.32
2023-05-24T09:54:42.927Z,13.05
2023-05-24T09:57:12.373Z,11.38
2023-05-24T09:59:44.178Z,13.35
2023-05-24T10:02:14.240Z,19.45
2023-05-24T10:04:45.709Z,12.10
2023-05-24T10:07:15.008Z,12.30
2023-05-24T10:09:45.765Z,11.00
2023-05-24T10:12:16.812Z,13.88
2023-05-24T10:14:46.693Z,11.45
2023-05-24T10:17:16.205Z,13.25
2023-05-24T10:19:47.053Z,13.80
2023-05-24T10:22:18.582Z,11.13
2023-05-24T10:24:48.765Z,14.27
2023-05-24T10:27:22.421Z,13.43
2023-05-24T10:32:32.611Z,12.80
2023-05-24T10:35:05.885Z,11.52
2023-05-24T10:37:35.866Z,16.13
2023-05-24T10:40:06.433Z,12.27
2023-05-24T10:42:37.005Z,9.88
2023-05-24T10:45:34.711Z,17.98
2023-05-24T10:48:12.509Z,9.90
2023-05-24T10:50:44.832Z,13.10
2023-05-24T10:53:15.665Z,11.63
2023-05-24T10:55:58.632Z,12.50
2023-05-24T10:58:46.182Z,12.98
2023-05-24T11:01:15.840Z,10.05
2023-05-24T11:03:46.052Z,12.02
2023-05-24T11:06:19.286Z,12.30
2023-05-24T11:08:48.751Z,16.33
2023-05-24T11:11:25.420Z,10.38
2023-05-24T11:13:58.846Z,13.13
2023-05-24T11:16:39.427Z,9.55
2023-05-24T11:19:18.181Z,15.63
2023-05-24T11:21:50.525Z,15.88
2023-05-24T11:24:22.111Z,15.18
2023-05-24T11:26:51.940Z,19.88
2023-05-24T11:29:23.745Z,8.50
2023-05-24T11:31:54.589Z,13.23
2023-05-24T11:34:27.494Z,16.65
2023-05-24T11:37:01.445Z,11.65
2023-05-24T11:39:32.501Z,12.10
2023-05-24T11:42:05.439Z,16.88
2023-05-24T11:44:38.317Z,18.35
2023-05-24T11:47:09.014Z,12.77
2023-05-24T11:49:38.561Z,13.50
2023-05-24T11:54:38.998Z,11.50
2023-05-24T11:57:09.025Z,11.07
2023-05-24T11:59:38.918Z,13.70
2023-05-24T12:02:10.489Z,11.75
2023-05-24T12:04:41.449Z,14.27
2023-05-24T12:07:14.252Z,17.60
2023-05-24T12:09:45.306Z,10.80
2023-05-24T12:12:13.566Z,12.77
2023-05-24T12:14:43.246Z,13.32
2023-05-24T12:17:17.534Z,13.07
2023-05-24T12:19:45.974Z,16.13
2023-05-24T12:22:15.501Z,10.13
2023-05-24T12:24:45.335Z,12.88
2023-05-24T12:27:14.893Z,14.15
2023-05-24T12:32:14.627Z,13.52
2023-05-24T12:34:47.229Z,11.27
2023-05-24T12:37:20.870Z,14.77
2023-05-24T12:39:50.382Z,14.88
2023-05-24T12:42:23.793Z,12.90
2023-05-24T12:44:54.403Z,12.40
2023-05-24T12:47:23.354Z,12.10
2023-05-24T12:49:51.739Z,11.63
2023-05-24T12:52:24.694Z,7.95
2023-05-24T12:54:54.312Z,13.65
2023-05-24T12:57:24.164Z,8.80
2023-05-24T12:59:52.399Z,13.63
2023-05-24T13:02:22.461Z,6.50
2023-05-24T13:04:51.218Z,11.60
2023-05-24T13:07:22.891Z,10.15
2023-05-24T13:09:52.459Z,13.50
2023-05-24T13:12:22.911Z,11.63
2023-05-24T13:14:52.999Z,12.82
2023-05-24T13:17:22.986Z,20.38
2023-05-24T13:19:52.004Z,11.85
2023-05-24T13:22:22.285Z,7.15
2023-05-24T13:24:51.037Z,19.42
2023-05-24T13:27:22.196Z,9.90
2023-05-24T13:30:00.933Z,11.32
2023-05-24T13:32:31.932Z,12.57
2023-05-24T13:35:02.888Z,13.63
2023-05-24T13:37:34.687Z,12.10
2023-05-24T13:40:04.880Z,11.38
2023-05-24T13:42:34.617Z,11.38
2023-05-24T13:45:06.035Z,13.63
2023-05-24T13:47:40.480Z,14.23
2023-05-24T13:50:12.325Z,13.85
2023-05-24T13:52:44.418Z,13.32
2023-05-24T13:55:13.530Z,16.00
2023-05-24T13:57:51.583Z,17.35
2023-05-24T14:00:21.623Z,13.93
2023-05-24T14:02:52.074Z,13.68
2023-05-24T14:07:56.582Z,14.40
2023-05-24T14:10:26.297Z,13.27
2023-05-24T14:13:11.983Z,11.48
2023-05-24T14:15:47.883Z,12.82
2023-05-24T14:18:17.793Z,15.93
2023-05-24T14:20:47.642Z,12.50
2023-05-24T14:23:18.944Z,18.63
2023-05-24T14:25:47.548Z,8.10
2023-05-24T14:28:15.814Z,15.52
2023-05-24T14:30:45.522Z,13.60
2023-05-24T14:33:15.022Z,11.82
2023-05-24T14:35:43.976Z,11.35
2023-05-24T14:38:12.852Z,15.98
2023-05-24T14:40:48.521Z,10.77
2023-05-24T14:43:18.664Z,12.70
2023-05-24T14:45:47.553Z,19.63
2023-05-24T14:48:17.945Z,13.90
2023-05-24T14:50:47.426Z,13.30
2023-05-24T14:53:15.854Z,13.65
2023-05-24T14:58:15.809Z,10.93
2023-05-24T15:00:45.855Z,11.77
2023-05-24T15:03:17.256Z,14.27
2023-05-24T15:05:45.680Z,11.18
2023-05-24T15:08:16.761Z,10.00
2023-05-24T15:10:47.996Z,12.32
2023-05-24T15:13:17.965Z,15.43
2023-05-24T15:15:46.930Z,13.10
2023-05-24T15:18:17.270Z,11.40
2023-05-24T15:20:46.962Z,13.80
2023-05-24T15:23:15.622Z,13.65
2023-05-24T15:25:45.281Z,15.10
2023-05-24T15:28:17.279Z,12.30
2023-05-24T15:30:47.288Z,22.63
2023-05-24T15:33:17.107Z,13.40
2023-05-24T15:35:48.347Z,12.70
2023-05-24T15:38:18.653Z,14.75
2023-05-24T15:40:49.889Z,12.80
2023-05-24T15:43:20.981Z,16.70
2023-05-24T15:45:51.890Z,11.95
2023-05-24T15:48:22.699Z,15.02
2023-05-24T15:51:39.807Z,13.00
2023-05-24T15:53:43.235Z,15.10
2023-05-24T15:56:12.846Z,9.88
2023-05-24T15:58:42.593Z,18.50
2023-05-24T16:01:11.199Z,15.60
2023-05-24T16:03:40.797Z,19.88
2023-05-24T16:06:09.538Z,11.40
2023-05-24T16:08:40.288Z,16.42
2023-05-24T16:11:10.671Z,10.45
2023-05-24T16:13:43.175Z,14.98
2023-05-24T16:16:11.574Z,10.95
2023-05-24T16:18:42.346Z,15.75
2023-05-24T16:21:12.121Z,16.50
2023-05-24T16:23:41.833Z,16.52
2023-05-24T16:26:10.566Z,11.82
2023-05-24T16:28:40.047Z,13.57
2023-05-24T16:31:12.165Z,11.52
2023-05-24T16:33:41.579Z,17.08
2023-05-24T16:36:12.875Z,11.80
2023-05-24T16:38:41.563Z,9.63
2023-05-24T16:41:11.063Z,13.27
2023-05-24T16:43:40.610Z,9.85
2023-05-24T16:46:12.359Z,11.43
2023-05-24T16:48:41.783Z,18.77
2023-05-24T16:51:11.628Z,12.90
2023-05-24T16:53:41.320Z,17.08
2023-05-24T16:56:11.974Z,10.38
2023-05-24T16:58:40.595Z,10.63
2023-05-24T17:01:13.068Z,11.68
2023-05-24T17:03:42.771Z,13.55
2023-05-24T17:06:12.446Z,9.88
2023-05-24T17:08:41.916Z,11.38
2023-05-24T17:11:11.364Z,12.15
2023-05-24T17:13:42.019Z,11.93
2023-05-24T17:16:14.172Z,9.95
2023-05-24T17:18:43.607Z,14.77
2023-05-24T17:21:13.055Z,12.93
2023-05-24T17:23:42.798Z,11.60
2023-05-24T17:26:14.731Z,12.20
2023-05-24T17:28:46.263Z,15.00
2023-05-24T17:31:17.368Z,14.27
2023-05-24T17:33:46.876Z,12.93
2023-05-24T17:36:16.680Z,13.95
2023-05-24T17:38:46.492Z,12.43
2023-05-24T17:41:16.157Z,11.93
2023-05-24T17:43:44.680Z,10.23
2023-05-24T17:46:13.643Z,9.18
2023-05-24T17:48:45.911Z,9.77
2023-05-24T17:51:14.784Z,11.57
2023-05-24T17:53:44.971Z,14.80
2023-05-24T17:56:16.260Z,16.60
2023-05-24T17:58:47.577Z,15.55
2023-05-24T18:01:18.308Z,15.55
2023-05-24T18:03:49.463Z,10.82
2023-05-24T18:06:19.136Z,14.68
2023-05-24T18:08:48.997Z,14.20
2023-05-24T18:11:18.706Z,11.40
2023-05-24T18:13:48.954Z,10.75
2023-05-24T18:16:19.170Z,10.35
2023-05-24T18:18:50.585Z,13.50
2023-05-24T18:21:20.490Z,12.65
2023-05-24T18:23:50.573Z,16.50
2023-05-24T18:26:20.478Z,11.65
2023-05-24T18:28:51.629Z,16.15
2023-05-24T18:31:20.553Z,12.98
2023-05-24T18:33:53.593Z,13.68
2023-05-24T18:36:22.438Z,15.73
2023-05-24T18:38:52.120Z,15.32
2023-05-24T18:41:20.313Z,16.27
2023-05-24T18:43:51.059Z,17.10
2023-05-24T18:46:20.558Z,14.27
2023-05-24T18:48:49.332Z,15.07
2023-05-24T18:51:20.355Z,13.70
2023-05-24T18:53:50.648Z,17.60
2023-05-24T18:56:20.338Z,14.75
2023-05-24T19:01:19.728Z,12.63
2023-05-24T19:03:48.288Z,14.70
2023-05-24T19:08:47.717Z,12.75
2023-05-24T19:11:17.730Z,19.83
2023-05-24T19:13:46.071Z,14.30
2023-05-24T19:16:17.671Z,21.73
2023-05-24T19:18:49.174Z,19.83
2023-05-24T19:21:20.059Z,18.25
2023-05-24T19:23:50.881Z,17.35
2023-05-24T19:26:19.106Z,15.90
2023-05-24T19:28:51.797Z,18.80
2023-05-24T19:31:21.234Z,17.35
2023-05-24T19:33:59.792Z,16.25
2023-05-24T19:36:32.750Z,17.67
2023-05-24T19:39:02.414Z,19.20
2023-05-24T19:41:32.487Z,23.65
2023-05-24T19:44:00.659Z,26.30
2023-05-24T19:46:30.513Z,24.45
2023-05-24T19:49:01.688Z,22.10
2023-05-24T19:51:30.221Z,22.08
2023-05-24T19:53:59.732Z,27.55
2023-05-24T19:56:31.753Z,23.15
2023-05-24T19:59:01.194Z,28.77
2023-05-24T20:01:32.155Z,20.20
2023-05-24T20:04:00.862Z,25.88
2023-05-24T20:06:30.820Z,28.83
2023-05-24T20:09:00.351Z,27.65
2023-05-24T20:11:31.458Z,26.83
2023-05-24T20:14:01.226Z,27.05
2023-05-24T20:16:32.742Z,23.77
2023-05-24T20:19:02.469Z,25.98
2023-05-24T20:21:32.192Z,20.85
2023-05-24T20:24:01.183Z,19.30
2023-05-24T20:26:33.089Z,17.00
2023-05-24T20:29:02.542Z,19.15
2023-05-24T20:31:31.327Z,19.98
2023-05-24T20:33:59.579Z,15.13
2023-05-24T20:36:29.120Z,14.10
2023-05-24T20:38:57.601Z,15.90
2023-05-24T20:41:30.341Z,18.55
2023-05-24T20:43:59.982Z,24.20
2023-05-24T20:46:28.488Z,21.13
2023-05-24T20:48:58.335Z,14.70
2023-05-24T20:51:26.613Z,17.50
2023-05-24T20:53:56.504Z,27.45
2023-05-24T20:56:26.318Z,20.70
2023-05-24T20:58:59.309Z,24.13
2023-05-24T21:01:29.355Z,25.15
2023-05-24T21:03:59.233Z,33.35
2023-05-24T21:06:30.912Z,24.10
2023-05-24T21:09:01.863Z,25.27
2023-05-24T21:11:32.846Z,23.40
2023-05-24T21:14:02.450Z,18.63
2023-05-24T21:16:33.763Z,19.92
2023-05-24T21:19:03.831Z,24.00
2023-05-24T21:21:33.392Z,18.80
2023-05-24T21:24:02.784Z,17.92
2023-05-24T21:26:32.210Z,18.42
2023-05-24T21:29:00.449Z,21.98
2023-05-24T21:31:33.109Z,18.50
2023-05-24T21:34:04.124Z,19.05
2023-05-24T21:36:33.941Z,14.32
2023-05-24T21:39:07.484Z,16.45
2023-05-24T21:41:35.808Z,13.45
2023-05-24T21:44:08.476Z,16.17
2023-05-24T21:46:37.325Z,13.98
2023-05-24T21:49:09.313Z,20.50
2023-05-24T21:51:38.395Z,14.52
2023-05-24T21:54:08.358Z,12.85
2023-05-24T21:56:37.016Z,18.83
2023-05-24T21:59:06.427Z,20.85
2023-05-24T22:01:34.681Z,18.58
2023-05-24T22:04:04.185Z,16.90
2023-05-24T22:06:33.847Z,23.58
2023-05-24T22:09:03.371Z,15.30
2023-05-24T22:11:33.168Z,19.95
2023-05-24T22:14:03.086Z,18.92
2023-05-24T22:16:32.587Z,21.75
2023-05-24T22:19:03.253Z,19.58
2023-05-24T22:21:34.589Z,24.60
2023-05-24T22:24:02.997Z,15.18
2023-05-24T22:26:33.209Z,22.02
2023-05-24T22:29:03.820Z,19.65
2023-05-24T22:31:35.706Z,22.20
2023-05-24T22:34:04.202Z,25.55
2023-05-24T22:36:38.799Z,26.20
2023-05-24T22:39:08.310Z,23.77
2023-05-24T22:41:36.806Z,24.70
2023-05-24T22:44:06.173Z,20.17
2023-05-24T22:46:35.004Z,19.02
2023-05-24T22:49:05.899Z,18.55
2023-05-24T22:51:37.721Z,22.98
2023-05-24T22:54:06.218Z,27.27
2023-05-24T22:56:36.133Z,19.38
2023-05-24T22:59:04.586Z,25.75
2023-05-24T23:01:33.738Z,36.75
2023-05-24T23:04:18.966Z,41.97
2023-05-24T23:06:52.548Z,35.55
2023-05-24T23:09:30.105Z,35.03
2023-05-24T23:11:59.738Z,40.65
2023-05-24T23:14:31.714Z,39.83
2023-05-24T23:17:02.738Z,31.73
2023-05-24T23:19:33.358Z,27.23
2023-05-24T23:22:05.792Z,35.38
2023-05-24T23:24:38.067Z,26.30
2023-05-24T23:27:08.490Z,23.35
2023-05-24T23:29:38.961Z,23.63
2023-05-24T23:32:09.813Z,26.70
2023-05-24T23:34:39.481Z,24.67
2023-05-24T23:37:10.593Z,29.85
2023-05-24T23:39:40.250Z,20.27
2023-05-24T23:42:10.189Z,25.35
2023-05-24T23:44:38.374Z,26.75
2023-05-24T23:47:08.290Z,30.73
2023-05-24T23:52:08.520Z,37.28
2023-05-24T23:54:37.984Z,39.20
2023-05-24T23:57:07.604Z,28.58
2023-05-24T23:59:37.744Z,37.45
